createdAt,value
2019-03-15T00:01:30.462Z,7.43
2019-03-15T00:03:58.596Z,7.40
2019-03-15T00:06:25.508Z,7.39
2019-03-15T00:08:52.915Z,7.39
2019-03-15T00:11:19.783Z,7.37
2019-03-15T00:13:46.553Z,7.37
2019-03-15T00:16:13.713Z,7.36
2019-03-15T00:18:40.458Z,7.35
2019-03-15T00:21:07.374Z,7.32
2019-03-15T00:23:34.570Z,7.31
2019-03-15T00:26:01.381Z,7.32
2019-03-15T00:28:28.156Z,7.33
2019-03-15T00:30:54.973Z,7.35
2019-03-15T00:33:21.721Z,7.36
2019-03-15T00:35:48.665Z,7.38
2019-03-15T00:38:16.016Z,7.38
2019-03-15T00:40:43.158Z,7.40
2019-03-15T00:43:09.904Z,7.40
2019-03-15T00:45:37.229Z,7.41
2019-03-15T00:48:06.127Z,7.41
2019-03-15T00:50:33.299Z,7.42
2019-03-15T00:53:02.865Z,7.40
2019-03-15T00:55:30.617Z,7.40
2019-03-15T00:57:57.390Z,7.39
2019-03-15T01:00:24.260Z,7.41
2019-03-15T01:02:51.537Z,7.41
2019-03-15T01:05:18.352Z,7.42
2019-03-15T01:07:45.705Z,7.43
2019-03-15T01:10:12.656Z,7.41
2019-03-15T01:12:40.568Z,7.41
2019-03-15T01:15:12.149Z,7.45
2019-03-15T01:17:39.193Z,7.46
2019-03-15T01:20:31.229Z,7.45
2019-03-15T01:22:58.186Z,7.44
2019-03-15T01:25:24.993Z,7.45
2019-03-15T01:27:51.816Z,7.46
2019-03-15T01:30:18.615Z,7.46
2019-03-15T01:32:46.299Z,7.46
2019-03-15T01:35:13.659Z,7.46
2019-03-15T01:37:40.483Z,7.45
2019-03-15T01:40:07.799Z,7.48
2019-03-15T01:42:34.739Z,7.47
2019-03-15T01:45:01.870Z,7.46
2019-03-15T01:47:28.748Z,7.49
2019-03-15T01:49:56.021Z,7.46
2019-03-15T01:52:23.064Z,7.44
2019-03-15T01:54:50.406Z,7.44
2019-03-15T01:57:17.870Z,7.46
2019-03-15T01:59:45.211Z,7.47
2019-03-15T02:02:12.101Z,7.51
2019-03-15T02:04:38.921Z,7.51
2019-03-15T02:07:06.441Z,7.49
2019-03-15T02:09:33.476Z,7.49
2019-03-15T02:12:00.363Z,7.49
2019-03-15T02:14:27.671Z,7.47
2019-03-15T02:16:54.702Z,7.49
2019-03-15T02:19:21.869Z,7.52
2019-03-15T02:21:48.843Z,7.55
2019-03-15T02:24:15.740Z,7.56
2019-03-15T02:26:42.747Z,7.58
2019-03-15T02:29:09.718Z,7.61
2019-03-15T02:31:36.934Z,7.63
2019-03-15T02:34:04.373Z,7.63
2019-03-15T02:36:31.184Z,7.65
2019-03-15T02:38:58.515Z,7.64
2019-03-15T02:41:25.306Z,7.64
2019-03-15T02:43:52.256Z,7.61
2019-03-15T02:46:19.017Z,7.58
2019-03-15T02:48:45.788Z,7.53
2019-03-15T02:51:12.744Z,7.52
2019-03-15T02:53:39.854Z,7.52
2019-03-15T02:56:06.604Z,7.50
2019-03-15T02:58:34.028Z,7.49
2019-03-15T03:01:03.172Z,7.50
2019-03-15T03:03:30.233Z,7.51
2019-03-15T03:05:57.556Z,7.49
2019-03-15T03:08:24.876Z,7.43
2019-03-15T03:10:51.672Z,7.36
2019-03-15T03:13:18.679Z,7.27
2019-03-15T03:15:45.469Z,7.24
2019-03-15T03:18:12.320Z,7.18
2019-03-15T03:20:39.117Z,7.03
2019-03-15T03:23:06.006Z,6.97
2019-03-15T03:25:33.155Z,6.92
2019-03-15T03:28:01.288Z,6.85
2019-03-15T03:30:28.398Z,6.86
2019-03-15T03:32:55.628Z,6.87
2019-03-15T03:35:22.417Z,6.89
2019-03-15T03:37:49.279Z,6.93
2019-03-15T03:40:20.380Z,6.91
2019-03-15T03:42:45.836Z,6.90
2019-03-15T03:45:13.249Z,6.90
2019-03-15T03:47:39.963Z,6.88
2019-03-15T03:50:09.141Z,6.90
2019-03-15T03:52:36.164Z,6.93
2019-03-15T03:55:04.631Z,6.90
2019-03-15T03:57:31.672Z,6.91
2019-03-15T03:59:58.682Z,6.92
2019-03-15T04:02:25.809Z,6.97
2019-03-15T04:04:53.079Z,7.00
2019-03-15T04:07:20.327Z,7.05
2019-03-15T04:09:47.265Z,7.10
2019-03-15T04:12:14.252Z,7.14
2019-03-15T04:14:41.367Z,7.22
2019-03-15T04:17:08.269Z,7.26
2019-03-15T04:19:38.324Z,7.30
2019-03-15T04:22:05.132Z,7.33
2019-03-15T04:24:31.971Z,7.36
2019-03-15T04:26:58.850Z,7.37
2019-03-15T04:29:25.796Z,7.37
2019-03-15T04:31:53.182Z,7.42
2019-03-15T04:34:20.041Z,7.44
2019-03-15T04:36:47.011Z,7.46
2019-03-15T04:39:14.228Z,7.49
2019-03-15T04:41:41.143Z,7.50
2019-03-15T04:44:07.972Z,7.50
2019-03-15T04:46:34.722Z,7.52
2019-03-15T04:49:01.490Z,7.54
2019-03-15T04:51:28.743Z,7.53
2019-03-15T04:53:55.813Z,7.55
2019-03-15T04:56:22.965Z,7.58
2019-03-15T04:58:49.804Z,7.61
2019-03-15T05:01:17.006Z,7.60
2019-03-15T05:03:43.978Z,7.63
2019-03-15T05:06:11.340Z,7.63
2019-03-15T05:08:38.499Z,7.64
2019-03-15T05:11:06.004Z,7.65
2019-03-15T05:13:33.283Z,7.66
2019-03-15T05:16:00.517Z,7.66
2019-03-15T05:18:27.294Z,7.66
2019-03-15T05:20:54.419Z,7.61
2019-03-15T05:23:21.520Z,7.54
2019-03-15T05:25:48.270Z,7.48
2019-03-15T05:28:15.104Z,7.40
2019-03-15T05:30:41.874Z,7.37
2019-03-15T05:33:08.668Z,7.38
2019-03-15T05:35:35.528Z,7.31
2019-03-15T05:38:02.711Z,7.31
2019-03-15T05:40:29.489Z,7.25
2019-03-15T05:42:56.496Z,7.27
2019-03-15T05:45:23.800Z,7.25
2019-03-15T05:47:50.571Z,7.19
2019-03-15T05:50:17.327Z,7.19
2019-03-15T05:52:44.210Z,7.17
2019-03-15T05:55:13.147Z,7.16
2019-03-15T05:57:39.934Z,7.12
2019-03-15T06:00:13.447Z,7.08
2019-03-15T06:02:40.763Z,7.11
2019-03-15T06:05:09.040Z,7.09
2019-03-15T06:07:36.209Z,7.05
2019-03-15T06:10:08.038Z,7.03
2019-03-15T06:12:35.234Z,7.03
2019-03-15T06:15:04.787Z,7.02
2019-03-15T06:17:31.685Z,6.97
2019-03-15T06:19:58.472Z,6.92
2019-03-15T06:22:26.454Z,6.88
2019-03-15T06:24:53.646Z,6.88
2019-03-15T06:27:23.418Z,6.86
2019-03-15T06:29:50.187Z,6.87
2019-03-15T06:32:17.356Z,6.83
2019-03-15T06:34:44.154Z,6.81
2019-03-15T06:37:10.945Z,6.84
2019-03-15T06:39:37.973Z,6.81
2019-03-15T06:42:04.750Z,6.80
2019-03-15T06:44:31.502Z,6.83
2019-03-15T06:47:03.598Z,6.88
2019-03-15T06:49:30.364Z,6.86
2019-03-15T06:51:57.218Z,6.85
2019-03-15T06:54:26.889Z,6.83
2019-03-15T06:56:53.709Z,6.86
2019-03-15T06:59:21.159Z,6.92
2019-03-15T07:01:48.035Z,6.91
2019-03-15T07:04:14.817Z,6.91
2019-03-15T07:06:42.484Z,6.90
2019-03-15T07:09:10.319Z,6.95
2019-03-15T07:11:37.323Z,6.99
2019-03-15T07:14:04.438Z,7.03
2019-03-15T07:16:31.246Z,7.06
2019-03-15T07:18:58.403Z,7.08
2019-03-15T07:21:26.268Z,7.07
2019-03-15T07:23:57.856Z,7.08
2019-03-15T07:26:25.477Z,7.11
2019-03-15T07:28:52.475Z,7.12
2019-03-15T07:31:19.403Z,7.12
2019-03-15T07:33:46.773Z,7.17
2019-03-15T07:36:14.056Z,7.19
2019-03-15T07:38:41.015Z,7.20
2019-03-15T07:41:07.903Z,7.21
2019-03-15T07:43:34.814Z,7.16
2019-03-15T07:46:02.094Z,7.14
2019-03-15T07:48:29.002Z,7.13
2019-03-15T07:50:56.138Z,7.13
2019-03-15T07:53:22.951Z,7.14
2019-03-15T07:55:52.279Z,7.16
2019-03-15T07:58:19.068Z,7.19
2019-03-15T08:00:45.966Z,7.21
2019-03-15T08:03:13.223Z,7.22
2019-03-15T08:05:40.004Z,7.22
2019-03-15T08:08:07.216Z,7.25
2019-03-15T08:10:34.006Z,7.27
2019-03-15T08:13:00.802Z,7.26
2019-03-15T08:15:27.749Z,7.28
2019-03-15T08:17:54.747Z,7.31
2019-03-15T08:20:22.554Z,7.33
2019-03-15T08:22:49.472Z,7.36
2019-03-15T08:25:16.448Z,7.42
2019-03-15T08:27:45.271Z,7.45
2019-03-15T08:30:17.202Z,7.46
2019-03-15T08:32:45.130Z,7.43
2019-03-15T08:35:12.756Z,7.36
2019-03-15T08:37:40.047Z,7.30
2019-03-15T08:40:09.884Z,7.29
2019-03-15T08:42:36.938Z,7.28
2019-03-15T08:45:10.055Z,7.30
2019-03-15T08:47:37.039Z,7.35
2019-03-15T08:50:08.774Z,7.35
2019-03-15T08:52:35.695Z,7.38
2019-03-15T08:55:06.082Z,7.44
2019-03-15T08:57:32.983Z,7.47
2019-03-15T08:59:59.899Z,7.48
2019-03-15T09:02:27.016Z,7.50
2019-03-15T09:04:53.865Z,7.56
2019-03-15T09:07:20.620Z,7.63
2019-03-15T09:09:48.019Z,7.66
2019-03-15T09:12:14.795Z,7.74
2019-03-15T09:14:41.579Z,7.79
2019-03-15T09:17:08.318Z,7.91
2019-03-15T09:19:35.115Z,8.23
2019-03-15T09:22:01.874Z,8.67
2019-03-15T09:24:28.639Z,8.85
2019-03-15T09:26:55.408Z,8.97
2019-03-15T09:29:24.455Z,9.10
2019-03-15T09:32:04.388Z,9.12
2019-03-15T09:34:19.800Z,9.17
2019-03-15T09:36:50.431Z,9.26
2019-03-15T09:39:15.684Z,9.31
2019-03-15T09:41:42.913Z,9.36
2019-03-15T09:44:09.711Z,9.39
2019-03-15T09:46:36.937Z,9.44
2019-03-15T09:49:03.947Z,9.48
2019-03-15T09:51:30.744Z,9.53
2019-03-15T09:53:57.576Z,9.50
2019-03-15T09:56:27.755Z,9.54
2019-03-15T09:58:53.558Z,9.53
2019-03-15T10:01:34.352Z,9.57
2019-03-15T10:03:49.501Z,9.58
2019-03-15T10:06:19.388Z,9.64
2019-03-15T10:08:45.477Z,9.67
2019-03-15T10:11:12.650Z,9.67
2019-03-15T10:13:39.501Z,9.77
2019-03-15T10:16:06.379Z,9.80
2019-03-15T10:18:33.550Z,9.83
2019-03-15T10:21:00.815Z,9.80
2019-03-15T10:23:27.573Z,9.80
2019-03-15T10:25:54.442Z,9.76
2019-03-15T10:28:21.195Z,9.81
2019-03-15T10:30:48.148Z,9.83
2019-03-15T10:33:15.226Z,9.82
2019-03-15T10:35:42.012Z,9.87
2019-03-15T10:38:09.111Z,9.87
2019-03-15T10:40:35.984Z,9.85
2019-03-15T10:43:03.314Z,9.88
2019-03-15T10:45:30.259Z,9.95
2019-03-15T10:47:57.158Z,9.97
2019-03-15T10:50:27.161Z,9.97
2019-03-15T10:52:54.232Z,9.98
2019-03-15T10:55:21.301Z,9.99
2019-03-15T10:57:48.054Z,9.99
2019-03-15T11:00:17.716Z,10.02
2019-03-15T11:02:44.944Z,10.03
2019-03-15T11:05:12.094Z,10.05
2019-03-15T11:07:39.481Z,10.08
2019-03-15T11:10:09.153Z,10.09
2019-03-15T11:12:36.027Z,10.13
2019-03-15T11:15:06.806Z,10.09
2019-03-15T11:17:33.637Z,10.08
2019-03-15T11:20:00.578Z,10.13
2019-03-15T11:22:27.559Z,10.16
2019-03-15T11:24:54.593Z,10.18
2019-03-15T11:27:22.154Z,10.18
2019-03-15T11:29:48.895Z,10.23
2019-03-15T11:32:16.133Z,10.24
2019-03-15T11:34:45.826Z,10.23
2019-03-15T11:37:15.482Z,10.22
2019-03-15T11:39:42.273Z,10.23
2019-03-15T11:42:09.031Z,10.22
2019-03-15T11:44:35.909Z,10.23
2019-03-15T11:47:02.936Z,10.23
2019-03-15T11:49:29.806Z,10.22
2019-03-15T11:51:56.952Z,10.20
2019-03-15T11:54:23.776Z,10.18
2019-03-15T11:56:51.011Z,10.17
2019-03-15T11:59:18.008Z,10.16
2019-03-15T12:01:44.780Z,10.16
2019-03-15T12:04:11.598Z,10.17
2019-03-15T12:06:38.418Z,10.20
2019-03-15T12:09:05.949Z,10.23
2019-03-15T12:11:33.954Z,10.26
2019-03-15T12:14:01.377Z,10.25
2019-03-15T12:16:28.628Z,10.27
2019-03-15T12:18:57.690Z,10.31
2019-03-15T12:21:25.205Z,10.34
2019-03-15T12:23:52.080Z,10.34
2019-03-15T12:26:19.076Z,10.35
2019-03-15T12:28:46.265Z,10.36
2019-03-15T12:31:13.352Z,10.37
2019-03-15T12:33:42.577Z,10.40
2019-03-15T12:36:09.408Z,10.44
2019-03-15T12:38:36.405Z,10.48
2019-03-15T12:41:03.435Z,10.50
2019-03-15T12:43:30.396Z,10.53
2019-03-15T12:45:58.113Z,10.54
2019-03-15T12:48:25.008Z,10.52
2019-03-15T12:50:52.221Z,10.54
2019-03-15T12:53:19.424Z,10.56
2019-03-15T12:55:46.194Z,10.55
2019-03-15T12:58:13.389Z,10.58
2019-03-15T13:00:40.600Z,10.61
2019-03-15T13:03:07.968Z,10.64
2019-03-15T13:05:35.894Z,10.71
2019-03-15T13:08:02.824Z,10.75
2019-03-15T13:10:31.023Z,10.78
2019-03-15T13:12:57.831Z,10.82
2019-03-15T13:15:25.290Z,10.87
2019-03-15T13:17:52.564Z,10.92
2019-03-15T13:20:19.616Z,10.95
2019-03-15T13:22:48.912Z,10.99
2019-03-15T13:25:15.960Z,10.99
2019-03-15T13:27:43.240Z,10.95
2019-03-15T13:30:15.484Z,10.97
2019-03-15T13:32:43.123Z,10.99
2019-03-15T13:35:11.457Z,10.99
2019-03-15T13:37:42.280Z,11.05
2019-03-15T13:40:13.110Z,11.08
2019-03-15T13:42:40.379Z,11.14
2019-03-15T13:45:13.044Z,11.21
2019-03-15T13:47:40.659Z,11.32
2019-03-15T13:50:17.705Z,11.37
2019-03-15T13:52:44.989Z,11.41
2019-03-15T13:55:12.191Z,11.34
2019-03-15T13:57:39.013Z,11.25
2019-03-15T14:00:15.938Z,11.20
2019-03-15T14:02:43.006Z,11.13
2019-03-15T14:05:10.141Z,11.06
2019-03-15T14:07:37.263Z,10.99
2019-03-15T14:10:13.066Z,10.96
2019-03-15T14:12:39.916Z,10.94
2019-03-15T14:15:17.111Z,10.92
2019-03-15T14:17:46.319Z,10.91
2019-03-15T14:20:14.689Z,10.97
2019-03-15T14:22:41.877Z,11.03
2019-03-15T14:25:22.429Z,11.07
2019-03-15T14:27:49.207Z,11.14
2019-03-15T14:30:16.012Z,11.16
2019-03-15T14:32:43.050Z,11.16
2019-03-15T14:35:10.099Z,11.15
2019-03-15T14:37:37.304Z,11.10
2019-03-15T14:40:10.109Z,11.12
2019-03-15T14:42:37.477Z,11.13
2019-03-15T14:45:09.451Z,11.14
2019-03-15T14:47:36.863Z,11.14
2019-03-15T14:50:09.054Z,11.12
2019-03-15T14:52:36.018Z,11.09
2019-03-15T14:55:12.269Z,11.07
2019-03-15T14:57:51.423Z,11.03
2019-03-15T15:00:12.061Z,11.02
2019-03-15T15:02:38.832Z,11.03
2019-03-15T15:05:09.225Z,10.98
2019-03-15T15:07:36.125Z,10.94
2019-03-15T15:10:15.471Z,10.92
2019-03-15T15:12:42.385Z,10.88
2019-03-15T15:15:13.246Z,10.84
2019-03-15T15:17:40.129Z,10.87
2019-03-15T15:20:09.277Z,10.91
2019-03-15T15:22:36.184Z,10.90
2019-03-15T15:25:12.553Z,10.89
2019-03-15T15:27:39.417Z,10.86
2019-03-15T15:30:12.376Z,10.86
2019-03-15T15:32:39.253Z,10.89
2019-03-15T15:35:08.603Z,10.89
2019-03-15T15:37:37.910Z,10.89
2019-03-15T15:40:10.072Z,10.86
2019-03-15T15:42:37.463Z,10.86
2019-03-15T15:45:07.698Z,10.86
2019-03-15T15:47:35.280Z,10.88
2019-03-15T15:50:04.657Z,10.86
2019-03-15T15:52:31.453Z,10.83
2019-03-15T15:54:58.676Z,10.81
2019-03-15T15:57:25.769Z,10.80
2019-03-15T15:59:52.508Z,10.75
2019-03-15T16:02:19.306Z,10.73
2019-03-15T16:04:46.190Z,10.74
2019-03-15T16:07:13.603Z,10.73
2019-03-15T16:09:40.474Z,10.72
2019-03-15T16:12:07.442Z,10.70
2019-03-15T16:14:34.359Z,10.70
2019-03-15T16:17:01.151Z,10.68
2019-03-15T16:19:30.172Z,10.69
2019-03-15T16:21:57.507Z,10.69
2019-03-15T16:24:26.210Z,10.69
2019-03-15T16:26:52.999Z,10.66
2019-03-15T16:29:19.887Z,10.66
2019-03-15T16:31:46.655Z,10.70
2019-03-15T16:34:13.933Z,10.71
2019-03-15T16:36:40.860Z,10.68
2019-03-15T16:39:07.921Z,10.75
2019-03-15T16:41:35.241Z,10.83
2019-03-15T16:44:02.275Z,10.86
2019-03-15T16:46:29.180Z,10.91
2019-03-15T16:48:56.035Z,10.94
2019-03-15T16:51:22.854Z,10.97
2019-03-15T16:53:50.018Z,10.99
2019-03-15T16:56:20.114Z,10.96
2019-03-15T16:58:46.805Z,10.91
2019-03-15T17:01:13.984Z,10.87
2019-03-15T17:03:40.876Z,10.87
2019-03-15T17:06:07.632Z,10.88
2019-03-15T17:08:34.851Z,10.89
2019-03-15T17:11:01.733Z,10.86
2019-03-15T17:13:28.986Z,10.83
2019-03-15T17:15:56.296Z,10.83
2019-03-15T17:18:23.148Z,10.76
2019-03-15T17:20:49.908Z,10.66
2019-03-15T17:23:16.711Z,10.63
2019-03-15T17:25:43.749Z,10.63
2019-03-15T17:28:10.651Z,10.60
2019-03-15T17:30:39.485Z,10.59
2019-03-15T17:33:06.491Z,10.59
2019-03-15T17:35:33.403Z,10.59
2019-03-15T17:38:00.318Z,10.56
2019-03-15T17:40:27.491Z,10.56
2019-03-15T17:42:55.409Z,10.58
2019-03-15T17:45:22.403Z,10.61
2019-03-15T17:47:51.393Z,10.60
2019-03-15T17:50:21.828Z,10.61
2019-03-15T17:52:48.718Z,10.61
2019-03-15T17:55:16.540Z,10.63
2019-03-15T17:57:45.733Z,10.63
2019-03-15T18:00:36.711Z,10.62
2019-03-15T18:03:19.234Z,10.64
2019-03-15T18:05:34.467Z,10.67
2019-03-15T18:08:01.587Z,10.69
2019-03-15T18:10:28.597Z,10.71
2019-03-15T18:12:55.621Z,10.71
2019-03-15T18:15:22.626Z,10.71
2019-03-15T18:17:49.739Z,10.71
2019-03-15T18:20:17.060Z,10.67
2019-03-15T18:22:44.553Z,10.65
2019-03-15T18:25:12.298Z,10.64
2019-03-15T18:27:39.598Z,10.67
2019-03-15T18:30:15.929Z,10.67
2019-03-15T18:32:42.954Z,10.70
2019-03-15T18:35:10.439Z,10.74
2019-03-15T18:37:38.045Z,10.72
2019-03-15T18:40:14.245Z,10.71
2019-03-15T18:42:41.365Z,10.68
2019-03-15T18:45:15.778Z,10.74
2019-03-15T18:47:42.606Z,10.73
2019-03-15T18:50:20.287Z,10.71
2019-03-15T18:52:47.551Z,10.71
2019-03-15T18:55:14.512Z,10.73
2019-03-15T18:57:41.356Z,10.74
2019-03-15T19:00:13.615Z,10.73
2019-03-15T19:02:40.397Z,10.71
2019-03-15T19:05:08.378Z,10.72
2019-03-15T19:07:35.332Z,10.71
2019-03-15T19:10:07.079Z,10.72
2019-03-15T19:12:34.310Z,10.70
2019-03-15T19:15:01.269Z,10.69
2019-03-15T19:17:28.395Z,10.68
2019-03-15T19:19:55.313Z,10.67
2019-03-15T19:22:22.441Z,10.68
2019-03-15T19:24:49.767Z,10.70
2019-03-15T19:27:17.031Z,10.70
2019-03-15T19:29:53.589Z,10.73
2019-03-15T19:32:13.222Z,10.71
2019-03-15T19:34:40.035Z,10.70
2019-03-15T19:37:06.884Z,10.73
2019-03-15T19:39:33.702Z,10.72
2019-03-15T19:42:02.886Z,10.68
2019-03-15T19:44:29.675Z,10.64
2019-03-15T19:46:56.625Z,10.64
2019-03-15T19:49:25.244Z,10.68
2019-03-15T19:51:52.119Z,10.67
2019-03-15T19:54:19.380Z,10.65
2019-03-15T19:56:46.713Z,10.70
2019-03-15T19:59:16.482Z,10.73
2019-03-15T20:01:43.552Z,10.73
2019-03-15T20:04:10.455Z,10.71
2019-03-15T20:06:37.194Z,10.69
2019-03-15T20:09:06.135Z,10.70
2019-03-15T20:11:32.916Z,10.70
2019-03-15T20:13:59.720Z,10.67
2019-03-15T20:16:26.461Z,10.66
2019-03-15T20:18:53.331Z,10.71
2019-03-15T20:21:20.587Z,10.71
2019-03-15T20:23:47.503Z,10.73
2019-03-15T20:26:14.300Z,10.73
2019-03-15T20:28:41.172Z,10.73
2019-03-15T20:31:07.910Z,10.72
2019-03-15T20:33:35.285Z,10.71
2019-03-15T20:36:02.758Z,10.73
2019-03-15T20:38:29.530Z,10.72
2019-03-15T20:40:56.482Z,10.67
2019-03-15T20:43:23.293Z,10.66
2019-03-15T20:45:50.115Z,10.65
2019-03-15T20:48:17.521Z,10.66
2019-03-15T20:50:47.003Z,10.70
2019-03-15T20:53:13.249Z,10.71
2019-03-15T20:55:40.656Z,10.72
2019-03-15T20:58:07.605Z,10.77
2019-03-15T21:00:36.118Z,10.76
2019-03-15T21:03:03.380Z,10.77
2019-03-15T21:05:31.031Z,10.80
2019-03-15T21:07:57.983Z,10.83
2019-03-15T21:10:24.746Z,10.90
2019-03-15T21:12:52.090Z,10.91
2019-03-15T21:15:19.553Z,10.91
2019-03-15T21:17:46.774Z,10.88
2019-03-15T21:20:15.526Z,10.81
2019-03-15T21:22:42.801Z,10.78
2019-03-15T21:25:09.863Z,10.80
2019-03-15T21:27:37.001Z,10.78
2019-03-15T21:30:18.887Z,10.79
2019-03-15T21:32:46.149Z,10.80
2019-03-15T21:35:13.084Z,10.78
2019-03-15T21:37:40.075Z,10.77
2019-03-15T21:40:21.031Z,10.70
2019-03-15T21:42:48.172Z,10.66
2019-03-15T21:45:15.150Z,10.64
2019-03-15T21:47:42.004Z,10.60
2019-03-15T21:50:21.007Z,10.52
2019-03-15T21:52:47.809Z,10.49
2019-03-15T21:55:14.990Z,10.46
2019-03-15T21:57:42.007Z,10.46
2019-03-15T22:00:16.733Z,10.45
2019-03-15T22:02:43.924Z,10.45
2019-03-15T22:05:11.000Z,10.45
2019-03-15T22:07:37.979Z,10.47
2019-03-15T22:10:13.958Z,10.47
2019-03-15T22:12:41.546Z,10.46
2019-03-15T22:15:10.681Z,10.45
2019-03-15T22:17:37.647Z,10.45
2019-03-15T22:20:17.696Z,10.44
2019-03-15T22:22:44.481Z,10.43
2019-03-15T22:25:11.915Z,10.44
2019-03-15T22:27:38.927Z,10.44
2019-03-15T22:30:09.727Z,10.44
2019-03-15T22:32:37.254Z,10.43
2019-03-15T22:35:05.431Z,10.43
2019-03-15T22:37:33.063Z,10.39
2019-03-15T22:40:00.160Z,10.36
2019-03-15T22:42:27.281Z,10.35
2019-03-15T22:44:54.160Z,10.38
2019-03-15T22:47:21.002Z,10.33
2019-03-15T22:49:47.921Z,10.34
2019-03-15T22:52:14.710Z,10.33
2019-03-15T22:54:41.649Z,10.33
2019-03-15T22:57:08.628Z,10.31
2019-03-15T22:59:36.187Z,10.30
2019-03-15T23:02:04.265Z,10.30
2019-03-15T23:04:31.009Z,10.30
2019-03-15T23:06:57.979Z,10.31
2019-03-15T23:09:24.822Z,10.32
2019-03-15T23:11:52.242Z,10.31
2019-03-15T23:14:19.024Z,10.31
2019-03-15T23:16:45.919Z,10.34
2019-03-15T23:19:13.003Z,10.35
2019-03-15T23:21:40.225Z,10.38
2019-03-15T23:24:07.702Z,10.39
2019-03-15T23:26:34.882Z,10.35
2019-03-15T23:29:01.772Z,10.32
2019-03-15T23:31:42.724Z,10.29
2019-03-15T23:33:58.462Z,10.29
2019-03-15T23:36:26.416Z,10.28
2019-03-15T23:38:53.846Z,10.29
2019-03-15T23:41:20.655Z,10.30
2019-03-15T23:43:47.578Z,10.30
2019-03-15T23:46:14.822Z,10.31
2019-03-15T23:48:41.998Z,10.29
2019-03-15T23:51:08.734Z,10.28
2019-03-15T23:53:36.267Z,10.26
2019-03-15T23:56:03.257Z,10.27
2019-03-15T23:58:30.010Z,10.25
